sensor_id;sensor_type;location;lat;lon;timestamp;pressure;altitude;pressure_sealevel;temperature;humidity
47670;BME280;33408;52.062;11.722;2023-05-01T00:01:05;101669.41;;;5.15;100.00
47670;BME280;33408;52.062;11.722;2023-05-01T00:03:34;101664.94;;;5.05;100.00
47670;BME280;33408;52.062;11.722;2023-05-01T00:06:02;101659.94;;;5.11;100.00
47670;BME280;33408;52.062;11.722;2023-05-01T00:08:29;101661.66;;;5.12;100.00
47670;BME280;33408;52.062;11.722;2023-05-01T00:10:56;101659.16;;;5.17;100.00
47670;BME280;33408;52.062;11.722;2023-05-01T00:13:22;101647.28;;;5.22;100.00
47670;BME280;33408;52.062;11.722;2023-05-01T00:15:49;101656.78;;;5.27;100.00
47670;BME280;33408;52.062;11.722;2023-05-01T00:18:16;101654.38;;;5.35;100.00
47670;BME280;33408;52.062;11.722;2023-05-01T00:20:44;101652.25;;;5.13;100.00
47670;BME280;33408;52.062;11.722;2023-05-01T00:23:10;101646.22;;;5.10;100.00
47670;BME280;33408;52.062;11.722;2023-05-01T00:25:38;101644.22;;;4.97;100.00
47670;BME280;33408;52.062;11.722;2023-05-01T00:28:04;101646.25;;;5.12;100.00
47670;BME280;33408;52.062;11.722;2023-05-01T00:30:31;101648.53;;;4.98;100.00
47670;BME280;33408;52.062;11.722;2023-05-01T00:32:58;101638.31;;;5.00;100.00
47670;BME280;33408;52.062;11.722;2023-05-01T00:35:26;101645.94;;;4.97;100.00
47670;BME280;33408;52.062;11.722;2023-05-01T00:37:54;101637.00;;;4.78;100.00
47670;BME280;33408;52.062;11.722;2023-05-01T00:40:22;101631.03;;;4.79;100.00
47670;BME280;33408;52.062;11.722;2023-05-01T00:42:49;101632.44;;;4.63;100.00
47670;BME280;33408;52.062;11.722;2023-05-01T00:45:16;101634.34;;;4.73;100.00
47670;BME280;33408;52.062;11.722;2023-05-01T00:47:42;101627.59;;;4.78;100.00
47670;BME280;33408;52.062;11.722;2023-05-01T00:50:09;101631.09;;;4.82;100.00
47670;BME280;33408;52.062;11.722;2023-05-01T00:52:36;101625.06;;;4.81;100.00
47670;BME280;33408;52.062;11.722;2023-05-01T00:55:07;101626.59;;;4.71;100.00
47670;BME280;33408;52.062;11.722;2023-05-01T00:57:33;101633.06;;;4.51;100.00
47670;BME280;33408;52.062;11.722;2023-05-01T01:00:01;101632.84;;;4.42;100.00
47670;BME280;33408;52.062;11.722;2023-05-01T01:02:28;101631.31;;;4.50;100.00
47670;BME280;33408;52.062;11.722;2023-05-01T01:04:54;101624.75;;;4.64;100.00
47670;BME280;33408;52.062;11.722;2023-05-01T01:07:27;101617.00;;;4.61;100.00
47670;BME280;33408;52.062;11.722;2023-05-01T01:10:01;101624.63;;;4.58;100.00
47670;BME280;33408;52.062;11.722;2023-05-01T01:12:38;101625.25;;;4.46;100.00
47670;BME280;33408;52.062;11.722;2023-05-01T01:15:14;101614.16;;;4.49;100.00
47670;BME280;33408;52.062;11.722;2023-05-01T01:17:49;101604.13;;;4.20;100.00
47670;BME280;33408;52.062;11.722;2023-05-01T01:20:23;101598.31;;;4.27;100.00
47670;BME280;33408;52.062;11.722;2023-05-01T01:23:00;101604.13;;;4.20;100.00
47670;BME280;33408;52.062;11.722;2023-05-01T01:26:02;101598.44;;;3.94;100.00
47670;BME280;33408;52.062;11.722;2023-05-01T01:28:54;101602.44;;;3.82;100.00
47670;BME280;33408;52.062;11.722;2023-05-01T01:31:31;101597.34;;;3.47;100.00
47670;BME280;33408;52.062;11.722;2023-05-01T01:34:03;101603.19;;;3.77;100.00
47670;BME280;33408;52.062;11.722;2023-05-01T01:36:40;101599.53;;;3.67;100.00
47670;BME280;33408;52.062;11.722;2023-05-01T01:39:12;101593.00;;;3.81;100.00
47670;BME280;33408;52.062;11.722;2023-05-01T01:41:42;101589.00;;;3.91;100.00
47670;BME280;33408;52.062;11.722;2023-05-01T01:44:15;101582.28;;;3.98;100.00
47670;BME280;33408;52.062;11.722;2023-05-01T01:46:47;101584.75;;;3.93;100.00
47670;BME280;33408;52.062;11.722;2023-05-01T01:49:18;101588.47;;;3.70;100.00
47670;BME280;33408;52.062;11.722;2023-05-01T01:51:46;101577.66;;;3.83;100.00
47670;BME280;33408;52.062;11.722;2023-05-01T01:54:15;101580.78;;;3.70;100.00
47670;BME280;33408;52.062;11.722;2023-05-01T01:56:45;101583.28;;;3.67;100.00
47670;BME280;33408;52.062;11.722;2023-05-01T01:59:14;101576.47;;;3.69;100.00
47670;BME280;33408;52.062;11.722;2023-05-01T02:01:42;101586.81;;;3.72;100.00
47670;BME280;33408;52.062;11.722;2023-05-01T02:04:10;101580.25;;;3.84;100.00
47670;BME280;33408;52.062;11.722;2023-05-01T02:06:40;101572.22;;;3.69;100.00
47670;BME280;33408;52.062;11.722;2023-05-01T02:09:08;101581.41;;;3.59;100.00
47670;BME280;33408;52.062;11.722;2023-05-01T02:11:36;101568.16;;;3.77;100.00
47670;BME280;33408;52.062;11.722;2023-05-01T02:14:04;101573.69;;;3.58;100.00
47670;BME280;33408;52.062;11.722;2023-05-01T02:16:33;101576.44;;;3.65;100.00
47670;BME280;33408;52.062;11.722;2023-05-01T02:19:03;101568.75;;;3.65;100.00
47670;BME280;33408;52.062;11.722;2023-05-01T02:21:31;101563.03;;;3.42;100.00
47670;BME280;33408;52.062;11.722;2023-05-01T02:24:01;101567.44;;;3.46;100.00
47670;BME280;33408;52.062;11.722;2023-05-01T02:26:28;101556.19;;;3.41;100.00
47670;BME280;33408;52.062;11.722;2023-05-01T02:28:56;101548.06;;;3.59;100.00
47670;BME280;33408;52.062;11.722;2023-05-01T02:31:23;101544.56;;;3.56;100.00
47670;BME280;33408;52.062;11.722;2023-05-01T02:33:50;101543.69;;;3.55;100.00
47670;BME280;33408;52.062;11.722;2023-05-01T02:36:16;101535.47;;;3.32;100.00
47670;BME280;33408;52.062;11.722;2023-05-01T02:38:43;101535.97;;;3.17;100.00
47670;BME280;33408;52.062;11.722;2023-05-01T02:41:14;101529.03;;;3.13;100.00
47670;BME280;33408;52.062;11.722;2023-05-01T02:43:41;101531.13;;;3.29;100.00
47670;BME280;33408;52.062;11.722;2023-05-01T02:46:11;101521.78;;;3.32;100.00
47670;BME280;33408;52.062;11.722;2023-05-01T02:48:39;101517.25;;;3.21;100.00
47670;BME280;33408;52.062;11.722;2023-05-01T02:51:08;101517.34;;;3.24;100.00
47670;BME280;33408;52.062;11.722;2023-05-01T02:53:35;101520.72;;;3.23;100.00
47670;BME280;33408;52.062;11.722;2023-05-01T02:56:04;101512.75;;;3.11;100.00
47670;BME280;33408;52.062;11.722;2023-05-01T02:58:33;101510.50;;;3.25;100.00
47670;BME280;33408;52.062;11.722;2023-05-01T03:01:00;101512.91;;;3.17;100.00
47670;BME280;33408;52.062;11.722;2023-05-01T03:03:26;101508.53;;;3.13;100.00
47670;BME280;33408;52.062;11.722;2023-05-01T03:05:53;101501.53;;;3.07;100.00
47670;BME280;33408;52.062;11.722;2023-05-01T03:08:19;101494.91;;;3.14;100.00
47670;BME280;33408;52.062;11.722;2023-05-01T03:10:46;101497.28;;;2.73;100.00
47670;BME280;33408;52.062;11.722;2023-05-01T03:13:13;101484.75;;;2.84;100.00
47670;BME280;33408;52.062;11.722;2023-05-01T03:15:41;101494.53;;;2.67;100.00
47670;BME280;33408;52.062;11.722;2023-05-01T03:18:07;101495.38;;;2.34;100.00
47670;BME280;33408;52.062;11.722;2023-05-01T03:20:34;101481.00;;;2.71;100.00
47670;BME280;33408;52.062;11.722;2023-05-01T03:23:00;101488.53;;;2.65;100.00
47670;BME280;33408;52.062;11.722;2023-05-01T03:25:27;101486.34;;;2.79;100.00
47670;BME280;33408;52.062;11.722;2023-05-01T03:27:54;101490.44;;;2.73;100.00
47670;BME280;33408;52.062;11.722;2023-05-01T03:30:20;101492.88;;;2.67;100.00
47670;BME280;33408;52.062;11.722;2023-05-01T03:32:49;101486.13;;;2.71;100.00
47670;BME280;33408;52.062;11.722;2023-05-01T03:35:16;101482.16;;;2.82;100.00
47670;BME280;33408;52.062;11.722;2023-05-01T03:37:43;101477.16;;;2.87;100.00
47670;BME280;33408;52.062;11.722;2023-05-01T03:40:10;101474.13;;;3.03;100.00
47670;BME280;33408;52.062;11.722;2023-05-01T03:42:37;101474.66;;;2.90;100.00
47670;BME280;33408;52.062;11.722;2023-05-01T03:45:05;101472.06;;;2.88;100.00
47670;BME280;33408;52.062;11.722;2023-05-01T03:47:31;101470.03;;;2.77;100.00
47670;BME280;33408;52.062;11.722;2023-05-01T03:49:59;101467.16;;;2.98;100.00
47670;BME280;33408;52.062;11.722;2023-05-01T03:52:26;101463.47;;;2.86;100.00
47670;BME280;33408;52.062;11.722;2023-05-01T03:54:53;101474.88;;;2.64;100.00
47670;BME280;33408;52.062;11.722;2023-05-01T03:57:19;101470.84;;;2.41;100.00
47670;BME280;33408;52.062;11.722;2023-05-01T03:59:47;101478.00;;;2.54;100.00
47670;BME280;33408;52.062;11.722;2023-05-01T04:02:14;101472.41;;;2.35;100.00
47670;BME280;33408;52.062;11.722;2023-05-01T04:04:40;101469.28;;;2.47;100.00
47670;BME280;33408;52.062;11.722;2023-05-01T04:07:09;101473.91;;;2.61;100.00
47670;BME280;33408;52.062;11.722;2023-05-01T04:09:35;101471.78;;;2.44;100.00
47670;BME280;33408;52.062;11.722;2023-05-01T04:12:02;101466.28;;;2.97;100.00
47670;BME280;33408;52.062;11.722;2023-05-01T04:14:30;101458.09;;;3.12;100.00
47670;BME280;33408;52.062;11.722;2023-05-01T04:16:56;101460.13;;;3.24;100.00
47670;BME280;33408;52.062;11.722;2023-05-01T04:19:23;101459.47;;;3.72;100.00
47670;BME280;33408;52.062;11.722;2023-05-01T04:21:50;101452.81;;;3.80;100.00
47670;BME280;33408;52.062;11.722;2023-05-01T04:24:18;101447.84;;;3.88;100.00
47670;BME280;33408;52.062;11.722;2023-05-01T04:26:44;101452.66;;;4.63;100.00
47670;BME280;33408;52.062;11.722;2023-05-01T04:29:11;101437.06;;;5.60;100.00
47670;BME280;33408;52.062;11.722;2023-05-01T04:31:37;101441.16;;;6.12;100.00
47670;BME280;33408;52.062;11.722;2023-05-01T04:34:05;101438.69;;;6.26;100.00
47670;BME280;33408;52.062;11.722;2023-05-01T04:36:32;101428.75;;;6.63;100.00
47670;BME280;33408;52.062;11.722;2023-05-01T04:38:58;101422.69;;;7.87;100.00
47670;BME280;33408;52.062;11.722;2023-05-01T04:41:26;101416.00;;;8.86;100.00
47670;BME280;33408;52.062;11.722;2023-05-01T04:43:53;101423.66;;;9.44;100.00
47670;BME280;33408;52.062;11.722;2023-05-01T04:46:20;101421.81;;;9.80;95.65
47670;BME280;33408;52.062;11.722;2023-05-01T04:48:46;101422.88;;;8.96;98.07
47670;BME280;33408;52.062;11.722;2023-05-01T04:51:13;101424.59;;;8.54;100.00
47670;BME280;33408;52.062;11.722;2023-05-01T04:53:40;101419.44;;;8.60;100.00
47670;BME280;33408;52.062;11.722;2023-05-01T04:56:06;101426.34;;;8.50;100.00
47670;BME280;33408;52.062;11.722;2023-05-01T04:58:34;101430.59;;;8.39;100.00
47670;BME280;33408;52.062;11.722;2023-05-01T05:01:01;101424.63;;;8.83;100.00
47670;BME280;33408;52.062;11.722;2023-05-01T05:03:27;101428.91;;;8.64;100.00
47670;BME280;33408;52.062;11.722;2023-05-01T05:05:54;101431.50;;;8.98;100.00
47670;BME280;33408;52.062;11.722;2023-05-01T05:08:20;101430.66;;;9.01;100.00
47670;BME280;33408;52.062;11.722;2023-05-01T05:10:47;101433.22;;;9.04;100.00
47670;BME280;33408;52.062;11.722;2023-05-01T05:13:14;101426.34;;;8.93;100.00
47670;BME280;33408;52.062;11.722;2023-05-01T05:15:42;101436.69;;;8.73;100.00
47670;BME280;33408;52.062;11.722;2023-05-01T05:18:09;101432.31;;;8.31;100.00
47670;BME280;33408;52.062;11.722;2023-05-01T05:20:37;101427.75;;;7.60;100.00
47670;BME280;33408;52.062;11.722;2023-05-01T05:23:04;101430.13;;;7.26;100.00
47670;BME280;33408;52.062;11.722;2023-05-01T05:25:30;101427.78;;;7.73;100.00
47670;BME280;33408;52.062;11.722;2023-05-01T05:27:57;101422.03;;;8.58;100.00
47670;BME280;33408;52.062;11.722;2023-05-01T05:30:24;101417.44;;;9.92;100.00
47670;BME280;33408;52.062;11.722;2023-05-01T05:32:52;101408.28;;;10.81;100.00
47670;BME280;33408;52.062;11.722;2023-05-01T05:35:19;101400.75;;;10.51;95.63
47670;BME280;33408;52.062;11.722;2023-05-01T05:37:46;101401.00;;;10.00;98.42
47670;BME280;33408;52.062;11.722;2023-05-01T05:40:15;101402.22;;;10.80;95.52
47670;BME280;33408;52.062;11.722;2023-05-01T05:42:41;101402.75;;;10.03;98.74
47670;BME280;33408;52.062;11.722;2023-05-01T05:45:08;101403.66;;;9.86;100.00
47670;BME280;33408;52.062;11.722;2023-05-01T05:47:36;101402.22;;;8.74;100.00
47670;BME280;33408;52.062;11.722;2023-05-01T05:50:05;101399.59;;;9.07;100.00
47670;BME280;33408;52.062;11.722;2023-05-01T05:52:32;101393.59;;;8.69;100.00
47670;BME280;33408;52.062;11.722;2023-05-01T05:54:58;101395.31;;;8.84;100.00
47670;BME280;33408;52.062;11.722;2023-05-01T05:57:25;101391.81;;;8.34;100.00
47670;BME280;33408;52.062;11.722;2023-05-01T05:59:51;101387.56;;;8.67;100.00
47670;BME280;33408;52.062;11.722;2023-05-01T06:02:18;101386.72;;;8.81;100.00
47670;BME280;33408;52.062;11.722;2023-05-01T06:04:45;101393.56;;;9.06;100.00
47670;BME280;33408;52.062;11.722;2023-05-01T06:07:13;101390.06;;;9.30;100.00
47670;BME280;33408;52.062;11.722;2023-05-01T06:09:39;101390.03;;;9.35;100.00
47670;BME280;33408;52.062;11.722;2023-05-01T06:12:06;101381.13;;;10.04;100.00
47670;BME280;33408;52.062;11.722;2023-05-01T06:14:33;101379.84;;;10.70;98.07
47670;BME280;33408;52.062;11.722;2023-05-01T06:16:59;101373.31;;;11.19;93.41
47670;BME280;33408;52.062;11.722;2023-05-01T06:19:26;101368.97;;;11.21;89.66
47670;BME280;33408;52.062;11.722;2023-05-01T06:21:53;101372.31;;;10.39;90.28
47670;BME280;33408;52.062;11.722;2023-05-01T06:24:20;101373.31;;;10.15;91.64
47670;BME280;33408;52.062;11.722;2023-05-01T06:26:47;101379.50;;;9.88;94.76
47670;BME280;33408;52.062;11.722;2023-05-01T06:29:14;101374.38;;;9.75;95.61
47670;BME280;33408;52.062;11.722;2023-05-01T06:31:40;101377.09;;;9.43;96.48
47670;BME280;33408;52.062;11.722;2023-05-01T06:34:07;101369.75;;;10.33;95.43
47670;BME280;33408;52.062;11.722;2023-05-01T06:36:33;101362.94;;;10.15;95.66
47670;BME280;33408;52.062;11.722;2023-05-01T06:39:00;101354.19;;;10.36;94.90
47670;BME280;33408;52.062;11.722;2023-05-01T06:41:28;101350.47;;;10.66;95.04
47670;BME280;33408;52.062;11.722;2023-05-01T06:43:55;101360.22;;;10.38;95.53
47670;BME280;33408;52.062;11.722;2023-05-01T06:46:22;101355.63;;;10.71;95.49
47670;BME280;33408;52.062;11.722;2023-05-01T06:48:49;101356.88;;;11.20;94.22
47670;BME280;33408;52.062;11.722;2023-05-01T06:51:15;101365.53;;;11.17;95.00
47670;BME280;33408;52.062;11.722;2023-05-01T06:53:42;101372.81;;;10.81;94.99
47670;BME280;33408;52.062;11.722;2023-05-01T06:56:09;101369.66;;;11.38;94.27
47670;BME280;33408;52.062;11.722;2023-05-01T06:58:36;101359.16;;;11.44;94.76
47670;BME280;33408;52.062;11.722;2023-05-01T07:01:03;101361.19;;;11.22;92.77
47670;BME280;33408;52.062;11.722;2023-05-01T07:03:30;101360.38;;;11.87;92.08
47670;BME280;33408;52.062;11.722;2023-05-01T07:05:56;101354.38;;;11.82;93.37
47670;BME280;33408;52.062;11.722;2023-05-01T07:08:23;101359.28;;;11.37;93.98
47670;BME280;33408;52.062;11.722;2023-05-01T07:10:52;101362.53;;;11.51;93.70
47670;BME280;33408;52.062;11.722;2023-05-01T07:13:19;101351.78;;;11.82;91.33
47670;BME280;33408;52.062;11.722;2023-05-01T07:15:47;101352.38;;;12.02;87.94
47670;BME280;33408;52.062;11.722;2023-05-01T07:18:14;101348.47;;;12.31;87.58
47670;BME280;33408;52.062;11.722;2023-05-01T07:20:41;101346.94;;;12.19;86.66
47670;BME280;33408;52.062;11.722;2023-05-01T07:23:08;101339.56;;;11.89;85.07
47670;BME280;33408;52.062;11.722;2023-05-01T07:25:35;101343.47;;;12.20;86.08
47670;BME280;33408;52.062;11.722;2023-05-01T07:28:02;101338.94;;;11.71;84.35
47670;BME280;33408;52.062;11.722;2023-05-01T07:30:30;101333.97;;;12.18;84.98
47670;BME280;33408;52.062;11.722;2023-05-01T07:32:58;101339.97;;;12.21;86.36
47670;BME280;33408;52.062;11.722;2023-05-01T07:35:26;101334.13;;;12.62;82.14
47670;BME280;33408;52.062;11.722;2023-05-01T07:37:52;101332.00;;;12.84;81.16
47670;BME280;33408;52.062;11.722;2023-05-01T07:40:19;101330.91;;;12.95;81.05
47670;BME280;33408;52.062;11.722;2023-05-01T07:42:46;101329.16;;;12.48;81.07
47670;BME280;33408;52.062;11.722;2023-05-01T07:45:12;101321.06;;;13.11;80.82
47670;BME280;33408;52.062;11.722;2023-05-01T07:47:39;101321.50;;;12.90;80.68
47670;BME280;33408;52.062;11.722;2023-05-01T07:50:10;101330.31;;;12.80;81.68
47670;BME280;33408;52.062;11.722;2023-05-01T07:52:36;101318.03;;;12.88;80.43
47670;BME280;33408;52.062;11.722;2023-05-01T07:55:04;101320.59;;;12.91;79.58
47670;BME280;33408;52.062;11.722;2023-05-01T07:57:31;101320.41;;;13.45;77.10
47670;BME280;33408;52.062;11.722;2023-05-01T07:59:58;101301.56;;;13.73;75.52
47670;BME280;33408;52.062;11.722;2023-05-01T08:02:25;101304.84;;;13.42;75.38
47670;BME280;33408;52.062;11.722;2023-05-01T08:04:51;101295.50;;;13.73;73.90
47670;BME280;33408;52.062;11.722;2023-05-01T08:07:20;101287.38;;;13.86;74.18
47670;BME280;33408;52.062;11.722;2023-05-01T08:09:46;101279.44;;;13.93;70.81
47670;BME280;33408;52.062;11.722;2023-05-01T08:12:13;101274.81;;;14.04;71.97
47670;BME280;33408;52.062;11.722;2023-05-01T08:14:40;101276.53;;;14.39;74.48
47670;BME280;33408;52.062;11.722;2023-05-01T08:17:06;101266.47;;;13.90;70.86
47670;BME280;33408;52.062;11.722;2023-05-01T08:19:33;101270.69;;;13.94;73.56
47670;BME280;33408;52.062;11.722;2023-05-01T08:22:04;101272.50;;;14.62;71.26
47670;BME280;33408;52.062;11.722;2023-05-01T08:24:32;101264.47;;;14.35;72.52
47670;BME280;33408;52.062;11.722;2023-05-01T08:26:58;101267.53;;;14.51;70.76
47670;BME280;33408;52.062;11.722;2023-05-01T08:29:25;101266.81;;;14.46;71.51
47670;BME280;33408;52.062;11.722;2023-05-01T08:31:51;101264.63;;;14.29;71.43
47670;BME280;33408;52.062;11.722;2023-05-01T08:34:18;101263.44;;;14.75;71.52
47670;BME280;33408;52.062;11.722;2023-05-01T08:36:44;101262.44;;;14.81;68.93
47670;BME280;33408;52.062;11.722;2023-05-01T08:39:11;101260.03;;;14.73;69.87
47670;BME280;33408;52.062;11.722;2023-05-01T08:41:44;101262.13;;;14.59;68.67
47670;BME280;33408;52.062;11.722;2023-05-01T08:44:12;101262.25;;;14.20;68.72
47670;BME280;33408;52.062;11.722;2023-05-01T08:46:45;101255.84;;;14.33;68.39
47670;BME280;33408;52.062;11.722;2023-05-01T08:49:14;101262.31;;;14.84;69.35
47670;BME280;33408;52.062;11.722;2023-05-01T08:51:44;101251.16;;;14.79;72.20
47670;BME280;33408;52.062;11.722;2023-05-01T08:54:11;101257.41;;;14.73;68.78
47670;BME280;33408;52.062;11.722;2023-05-01T08:56:39;101255.00;;;14.97;66.63
47670;BME280;33408;52.062;11.722;2023-05-01T08:59:08;101247.97;;;15.01;67.85
47670;BME280;33408;52.062;11.722;2023-05-01T09:01:36;101245.31;;;15.02;68.90
47670;BME280;33408;52.062;11.722;2023-05-01T09:04:05;101244.50;;;15.30;68.69
47670;BME280;33408;52.062;11.722;2023-05-01T09:06:32;101242.94;;;15.53;65.85
47670;BME280;33408;52.062;11.722;2023-05-01T09:08:58;101235.41;;;15.42;68.23
47670;BME280;33408;52.062;11.722;2023-05-01T09:11:26;101232.63;;;16.03;66.51
47670;BME280;33408;52.062;11.722;2023-05-01T09:13:53;101232.81;;;15.42;66.79
47670;BME280;33408;52.062;11.722;2023-05-01T09:16:21;101231.03;;;15.71;69.54
47670;BME280;33408;52.062;11.722;2023-05-01T09:18:49;101229.88;;;16.58;66.03
47670;BME280;33408;52.062;11.722;2023-05-01T09:21:15;101224.06;;;16.75;63.68
47670;BME280;33408;52.062;11.722;2023-05-01T09:23:42;101218.03;;;16.22;64.68
47670;BME280;33408;52.062;11.722;2023-05-01T09:26:08;101217.09;;;16.74;62.60
47670;BME280;33408;52.062;11.722;2023-05-01T09:28:40;101207.41;;;16.27;61.62
47670;BME280;33408;52.062;11.722;2023-05-01T09:31:21;101199.19;;;16.38;59.25
47670;BME280;33408;52.062;11.722;2023-05-01T09:33:51;101196.19;;;16.98;58.33
47670;BME280;33408;52.062;11.722;2023-05-01T09:36:19;101203.53;;;16.63;59.54
47670;BME280;33408;52.062;11.722;2023-05-01T09:38:47;101200.97;;;16.61;60.33
47670;BME280;33408;52.062;11.722;2023-05-01T09:41:23;101198.19;;;16.66;62.44
47670;BME280;33408;52.062;11.722;2023-05-01T09:43:51;101197.06;;;16.49;61.18
47670;BME280;33408;52.062;11.722;2023-05-01T09:46:18;101195.47;;;16.69;61.60
47670;BME280;33408;52.062;11.722;2023-05-01T09:48:53;101181.13;;;16.79;59.26
47670;BME280;33408;52.062;11.722;2023-05-01T09:51:22;101183.88;;;16.76;62.16
47670;BME280;33408;52.062;11.722;2023-05-01T09:53:50;101176.56;;;17.08;61.38
47670;BME280;33408;52.062;11.722;2023-05-01T09:56:17;101173.53;;;16.97;61.26
47670;BME280;33408;52.062;11.722;2023-05-01T09:58:44;101166.09;;;17.74;57.67
47670;BME280;33408;52.062;11.722;2023-05-01T10:01:12;101164.03;;;17.38;57.60
47670;BME280;33408;52.062;11.722;2023-05-01T10:03:39;101159.06;;;17.10;57.98
47670;BME280;33408;52.062;11.722;2023-05-01T10:06:08;101168.34;;;16.71;57.31
47670;BME280;33408;52.062;11.722;2023-05-01T10:08:48;101164.00;;;17.82;54.88
47670;BME280;33408;52.062;11.722;2023-05-01T10:11:15;101162.34;;;17.80;53.78
47670;BME280;33408;52.062;11.722;2023-05-01T10:14:05;101152.53;;;17.42;52.53
47670;BME280;33408;52.062;11.722;2023-05-01T10:16:33;101157.22;;;17.99;53.54
47670;BME280;33408;52.062;11.722;2023-05-01T10:19:01;101160.84;;;18.56;49.81
47670;BME280;33408;52.062;11.722;2023-05-01T10:21:28;101149.41;;;18.76;50.02
47670;BME280;33408;52.062;11.722;2023-05-01T10:23:56;101147.00;;;18.13;49.12
47670;BME280;33408;52.062;11.722;2023-05-01T10:26:23;101145.28;;;17.92;49.14
47670;BME280;33408;52.062;11.722;2023-05-01T10:28:51;101148.84;;;17.91;47.79
47670;BME280;33408;52.062;11.722;2023-05-01T10:31:19;101146.28;;;17.67;47.56
47670;BME280;33408;52.062;11.722;2023-05-01T10:33:46;101146.63;;;17.80;49.31
47670;BME280;33408;52.062;11.722;2023-05-01T10:36:16;101141.63;;;17.96;48.92
47670;BME280;33408;52.062;11.722;2023-05-01T10:38:44;101139.50;;;18.25;50.21
47670;BME280;33408;52.062;11.722;2023-05-01T10:41:13;101136.94;;;18.02;50.26
47670;BME280;33408;52.062;11.722;2023-05-01T10:43:39;101121.72;;;17.70;50.01
47670;BME280;33408;52.062;11.722;2023-05-01T10:46:29;101125.41;;;18.46;49.40
47670;BME280;33408;52.062;11.722;2023-05-01T10:48:56;101117.97;;;18.56;49.17
47670;BME280;33408;52.062;11.722;2023-05-01T10:51:23;101117.69;;;18.03;48.41
47670;BME280;33408;52.062;11.722;2023-05-01T10:54:23;101111.16;;;18.12;48.60
47670;BME280;33408;52.062;11.722;2023-05-01T10:56:51;101106.69;;;18.73;47.95
47670;BME280;33408;52.062;11.722;2023-05-01T10:59:18;101106.88;;;18.30;47.71
47670;BME280;33408;52.062;11.722;2023-05-01T11:01:46;101105.38;;;18.25;48.55
47670;BME280;33408;52.062;11.722;2023-05-01T11:04:45;101103.47;;;18.28;48.76
47670;BME280;33408;52.062;11.722;2023-05-01T11:07:17;101097.50;;;18.25;49.76
47670;BME280;33408;52.062;11.722;2023-05-01T11:09:44;101092.13;;;18.28;49.55
47670;BME280;33408;52.062;11.722;2023-05-01T11:12:12;101082.28;;;18.90;47.11
47670;BME280;33408;52.062;11.722;2023-05-01T11:15:04;101078.94;;;18.86;49.30
47670;BME280;33408;52.062;11.722;2023-05-01T11:17:46;101078.88;;;19.24;48.03
47670;BME280;33408;52.062;11.722;2023-05-01T11:20:48;101077.47;;;19.35;47.33
47670;BME280;33408;52.062;11.722;2023-05-01T11:23:18;101071.81;;;19.07;47.51
47670;BME280;33408;52.062;11.722;2023-05-01T11:25:46;101068.69;;;18.99;48.25
47670;BME280;33408;52.062;11.722;2023-05-01T11:28:18;101074.56;;;19.58;48.09
47670;BME280;33408;52.062;11.722;2023-05-01T11:30:45;101072.31;;;19.50;49.42
47670;BME280;33408;52.062;11.722;2023-05-01T11:33:20;101060.81;;;18.99;46.92
47670;BME280;33408;52.062;11.722;2023-05-01T11:35:56;101054.28;;;19.60;48.06
47670;BME280;33408;52.062;11.722;2023-05-01T11:38:22;101055.38;;;19.39;47.14
47670;BME280;33408;52.062;11.722;2023-05-01T11:40:53;101049.16;;;19.22;49.85
47670;BME280;33408;52.062;11.722;2023-05-01T11:43:20;101056.06;;;19.25;48.61
47670;BME280;33408;52.062;11.722;2023-05-01T11:45:51;101045.81;;;18.84;49.34
47670;BME280;33408;52.062;11.722;2023-05-01T11:48:20;101049.41;;;18.62;51.33
47670;BME280;33408;52.062;11.722;2023-05-01T11:50:46;101041.59;;;18.61;48.97
47670;BME280;33408;52.062;11.722;2023-05-01T11:53:17;101041.44;;;19.54;46.66
47670;BME280;33408;52.062;11.722;2023-05-01T11:55:44;101040.59;;;19.54;49.88
47670;BME280;33408;52.062;11.722;2023-05-01T11:58:11;101045.56;;;19.77;50.26
47670;BME280;33408;52.062;11.722;2023-05-01T12:00:39;101040.44;;;19.57;48.74
47670;BME280;33408;52.062;11.722;2023-05-01T12:03:09;101033.69;;;19.68;48.66
47670;BME280;33408;52.062;11.722;2023-05-01T12:05:39;101031.00;;;19.88;48.16
47670;BME280;33408;52.062;11.722;2023-05-01T12:08:08;101026.44;;;20.07;48.24
47670;BME280;33408;52.062;11.722;2023-05-01T12:10:36;101026.91;;;20.31;45.44
47670;BME280;33408;52.062;11.722;2023-05-01T12:13:04;101022.78;;;19.94;44.42
47670;BME280;33408;52.062;11.722;2023-05-01T12:15:33;101027.44;;;19.71;45.42
47670;BME280;33408;52.062;11.722;2023-05-01T12:18:00;101020.53;;;19.86;46.48
47670;BME280;33408;52.062;11.722;2023-05-01T12:20:34;101018.38;;;19.59;46.94
47670;BME280;33408;52.062;11.722;2023-05-01T12:23:03;101016.88;;;19.38;47.04
47670;BME280;33408;52.062;11.722;2023-05-01T12:25:31;101013.75;;;19.64;47.68
47670;BME280;33408;52.062;11.722;2023-05-01T12:28:01;101014.84;;;19.43;47.17
47670;BME280;33408;52.062;11.722;2023-05-01T12:30:28;101006.78;;;20.30;46.58
47670;BME280;33408;52.062;11.722;2023-05-01T12:32:56;101018.44;;;19.75;46.63
47670;BME280;33408;52.062;11.722;2023-05-01T12:35:28;101016.47;;;19.63;46.74
47670;BME280;33408;52.062;11.722;2023-05-01T12:37:55;101011.50;;;19.92;45.83
47670;BME280;33408;52.062;11.722;2023-05-01T12:40:24;101005.75;;;20.17;46.31
47670;BME280;33408;52.062;11.722;2023-05-01T12:42:54;101000.41;;;20.50;45.40
47670;BME280;33408;52.062;11.722;2023-05-01T12:45:22;100989.53;;;20.40;46.52
47670;BME280;33408;52.062;11.722;2023-05-01T12:47:49;100991.59;;;20.35;47.26